createdAt,value
2023-04-22T00:00:46.475Z,83.07
2023-04-22T00:01:47.403Z,82.97
2023-04-22T00:02:48.482Z,83.28
2023-04-22T00:03:49.149Z,83.28
2023-04-22T00:04:49.793Z,83.18
2023-04-22T00:05:50.357Z,83.18
2023-04-22T00:06:50.774Z,83.18
2023-04-22T00:07:51.681Z,83.28
2023-04-22T00:08:52.574Z,83.49
2023-04-22T00:09:53.506Z,83.59
2023-04-22T00:10:54.371Z,83.49
2023-04-22T00:11:55.261Z,83.80
2023-04-22T00:12:56.176Z,83.59
2023-04-22T00:13:57.069Z,83.59
2023-04-22T00:14:57.947Z,83.28
2023-04-22T00:15:58.900Z,83.07
2023-04-22T00:16:59.818Z,83.07
2023-04-22T00:18:00.759Z,83.18
2023-04-22T00:19:01.635Z,83.18
2023-04-22T00:20:02.525Z,83.28
2023-04-22T00:21:03.417Z,83.18
2023-04-22T00:22:04.293Z,83.49
2023-04-22T00:23:05.210Z,83.80
2023-04-22T00:24:06.099Z,83.90
2023-04-22T00:25:07.043Z,83.90
2023-04-22T00:26:07.910Z,84.11
2023-04-22T00:27:08.805Z,84.11
2023-04-22T00:28:09.754Z,83.59
2023-04-22T00:29:10.653Z,83.59
2023-04-22T00:30:11.518Z,83.94
2023-04-22T00:31:12.529Z,83.59
2023-04-22T00:32:12.989Z,83.49
2023-04-22T00:33:14.015Z,83.70
2023-04-22T00:34:14.360Z,84.25
2023-04-22T00:35:15.249Z,84.42
2023-04-22T00:36:16.153Z,83.84
2023-04-22T00:37:17.038Z,84.00
2023-04-22T00:38:17.952Z,84.15
2023-04-22T00:39:18.885Z,83.84
2023-04-22T00:40:19.780Z,83.94
2023-04-22T00:41:20.693Z,83.73
2023-04-22T00:42:21.569Z,84.05
2023-04-22T00:43:22.481Z,84.05
2023-04-22T00:44:23.398Z,84.15
2023-04-22T00:45:24.342Z,83.94
2023-04-22T00:46:25.222Z,83.94
2023-04-22T00:47:26.104Z,84.05
2023-04-22T00:48:28.882Z,84.36
2023-04-22T00:49:27.898Z,84.36
2023-04-22T00:50:28.823Z,84.15
2023-04-22T00:51:29.710Z,84.36
2023-04-22T00:52:30.592Z,84.36
2023-04-22T00:53:31.477Z,84.36
2023-04-22T00:54:32.389Z,85.08
2023-04-22T00:55:33.286Z,84.77
2023-04-22T00:56:34.186Z,84.87
2023-04-22T00:57:35.050Z,84.66
2023-04-22T00:58:35.923Z,84.97
2023-04-22T00:59:36.860Z,85.28
2023-04-22T01:00:37.832Z,84.66
2023-04-22T01:01:38.708Z,84.77
2023-04-22T01:02:39.752Z,84.87
2023-04-22T01:03:40.434Z,84.77
2023-04-22T01:04:40.897Z,84.97
2023-04-22T01:05:41.796Z,84.66
2023-04-22T01:06:42.671Z,85.08
2023-04-22T01:07:43.573Z,85.39
2023-04-22T01:08:44.452Z,85.70
2023-04-22T01:09:45.350Z,85.18
2023-04-22T01:10:46.273Z,85.91
2023-04-22T01:11:47.165Z,85.28
2023-04-22T01:12:48.054Z,85.08
2023-04-22T01:13:48.974Z,84.87
2023-04-22T01:14:49.844Z,85.08
2023-04-22T01:15:50.727Z,84.97
2023-04-22T01:16:51.726Z,85.08
2023-04-22T01:17:52.813Z,85.18
2023-04-22T01:18:53.196Z,85.08
2023-04-22T01:19:54.087Z,85.18
2023-04-22T01:20:54.948Z,85.18
2023-04-22T01:21:55.872Z,85.08
2023-04-22T01:22:56.756Z,84.87
2023-04-22T01:23:57.655Z,84.87
2023-04-22T01:24:58.554Z,84.97
2023-04-22T01:25:59.567Z,85.60
2023-04-22T01:26:59.956Z,85.49
2023-04-22T01:28:00.874Z,85.70
2023-04-22T01:29:01.813Z,84.97
2023-04-22T01:30:02.732Z,84.87
2023-04-22T01:31:03.637Z,85.18
2023-04-22T01:32:04.547Z,84.87
2023-04-22T01:33:05.873Z,84.97
2023-04-22T01:34:06.214Z,85.39
2023-04-22T01:35:07.111Z,85.42
2023-04-22T01:36:08.009Z,85.11
2023-04-22T01:37:08.777Z,85.32
2023-04-22T01:38:09.203Z,85.32
2023-04-22T01:39:10.094Z,85.11
2023-04-22T01:40:11.297Z,85.02
2023-04-22T01:41:11.715Z,84.81
2023-04-22T01:42:12.621Z,84.91
2023-04-22T01:43:13.572Z,85.22
2023-04-22T01:44:14.553Z,84.91
2023-04-22T01:45:15.459Z,84.81
2023-04-22T01:46:16.348Z,85.02
2023-04-22T01:47:17.551Z,84.70
2023-04-22T01:48:17.959Z,84.81
2023-04-22T01:49:18.865Z,84.60
2023-04-22T01:50:19.753Z,84.50
2023-04-22T01:51:20.664Z,84.60
2023-04-22T01:52:21.550Z,84.60
2023-04-22T01:53:22.461Z,84.39
2023-04-22T01:54:24.333Z,84.50
2023-04-22T01:55:24.208Z,84.39
2023-04-22T01:56:25.116Z,84.29
2023-04-22T01:57:25.982Z,84.19
2023-04-22T01:58:26.902Z,84.39
2023-04-22T01:59:27.804Z,84.39
2023-04-22T02:00:28.674Z,84.81
2023-04-22T02:01:29.830Z,84.60
2023-04-22T02:02:30.241Z,84.70
2023-04-22T02:03:31.407Z,84.39
2023-04-22T02:04:31.877Z,84.29
2023-04-22T02:05:32.766Z,84.81
2023-04-22T02:06:33.704Z,84.81
2023-04-22T02:07:34.591Z,84.70
2023-04-22T02:08:35.518Z,84.60
2023-04-22T02:09:36.503Z,84.70
2023-04-22T02:10:36.946Z,84.39
2023-04-22T02:11:37.846Z,84.29
2023-04-22T02:12:38.751Z,84.70
2023-04-22T02:13:39.645Z,84.84
2023-04-22T02:14:40.542Z,84.74
2023-04-22T02:15:41.476Z,84.95
2023-04-22T02:16:42.328Z,85.05
2023-04-22T02:17:43.209Z,84.95
2023-04-22T02:18:44.127Z,84.84
2023-04-22T02:19:45.064Z,85.16
2023-04-22T02:20:45.949Z,85.26
2023-04-22T02:21:46.812Z,84.95
2023-04-22T02:22:47.690Z,85.26
2023-04-22T02:23:48.591Z,85.36
2023-04-22T02:24:49.482Z,85.19
2023-04-22T02:25:50.380Z,85.50
2023-04-22T02:26:51.300Z,85.61
2023-04-22T02:27:52.181Z,85.82
2023-04-22T02:28:53.143Z,85.71
2023-04-22T02:29:54.035Z,86.13
2023-04-22T02:30:54.944Z,85.82
2023-04-22T02:31:55.892Z,85.82
2023-04-22T02:32:56.490Z,85.71
2023-04-22T02:33:56.893Z,85.92
2023-04-22T02:34:57.789Z,85.71
2023-04-22T02:35:58.671Z,85.92
2023-04-22T02:36:59.567Z,86.23
2023-04-22T02:38:00.526Z,85.61
2023-04-22T02:39:01.454Z,85.40
2023-04-22T02:40:02.336Z,85.40
2023-04-22T02:41:03.218Z,85.61
2023-04-22T02:42:04.172Z,85.61
2023-04-22T02:43:04.981Z,85.92
2023-04-22T02:44:05.969Z,85.61
2023-04-22T02:45:06.892Z,85.40
2023-04-22T02:46:07.817Z,85.44
2023-04-22T02:47:08.948Z,85.65
2023-04-22T02:48:09.451Z,85.34
2023-04-22T02:49:10.361Z,85.34
2023-04-22T02:50:11.248Z,85.44
2023-04-22T02:51:12.163Z,85.86
2023-04-22T02:52:13.114Z,86.07
2023-04-22T02:53:14.004Z,85.75
2023-04-22T02:54:14.885Z,85.75
2023-04-22T02:55:15.771Z,85.86
2023-04-22T02:56:16.674Z,86.17
2023-04-22T02:57:17.573Z,86.47
2023-04-22T02:58:18.465Z,86.58
2023-04-22T02:59:19.344Z,86.47
2023-04-22T03:00:20.235Z,86.27
2023-04-22T03:01:21.219Z,85.86
2023-04-22T03:02:22.151Z,85.65
2023-04-22T03:03:22.823Z,85.86
2023-04-22T03:04:23.428Z,85.96
2023-04-22T03:05:24.328Z,86.00
2023-04-22T03:06:25.228Z,85.86
2023-04-22T03:07:26.105Z,86.21
2023-04-22T03:08:27.032Z,86.31
2023-04-22T03:09:27.954Z,86.31
2023-04-22T03:10:28.815Z,86.00
2023-04-22T03:11:29.700Z,85.58
2023-04-22T03:12:30.620Z,85.38
2023-04-22T03:13:31.476Z,85.79
2023-04-22T03:14:32.398Z,85.89
2023-04-22T03:15:33.316Z,86.52
2023-04-22T03:16:34.258Z,86.83
2023-04-22T03:17:35.223Z,86.21
2023-04-22T03:18:36.096Z,86.41
2023-04-22T03:19:37.190Z,86.21
2023-04-22T03:20:37.567Z,85.89
2023-04-22T03:21:38.471Z,86.10
2023-04-22T03:22:39.377Z,85.89
2023-04-22T03:23:40.253Z,85.79
2023-04-22T03:24:41.169Z,85.89
2023-04-22T03:25:42.069Z,86.10
2023-04-22T03:26:42.951Z,86.00
2023-04-22T03:27:43.866Z,86.00
2023-04-22T03:28:44.796Z,86.21
2023-04-22T03:29:45.701Z,86.10
2023-04-22T03:30:46.591Z,86.00
2023-04-22T03:31:47.509Z,86.10
2023-04-22T03:32:48.473Z,86.21
2023-04-22T03:33:49.351Z,86.00
2023-04-22T03:34:50.265Z,86.04
2023-04-22T03:35:51.130Z,86.35
2023-04-22T03:36:52.020Z,86.15
2023-04-22T03:37:52.898Z,86.25
2023-04-22T03:38:53.813Z,86.35
2023-04-22T03:39:54.720Z,86.45
2023-04-22T03:40:55.658Z,86.45
2023-04-22T03:41:56.540Z,86.35
2023-04-22T03:42:57.452Z,86.25
2023-04-22T03:44:01.531Z,86.55
2023-04-22T03:44:59.193Z,86.55
2023-04-22T03:46:00.250Z,86.35
2023-04-22T03:47:00.635Z,86.66
2023-04-22T03:48:01.353Z,86.45
2023-04-22T03:49:02.234Z,86.49
2023-04-22T03:50:03.125Z,86.70
2023-04-22T03:51:04.045Z,86.60
2023-04-22T03:52:04.891Z,86.80
2023-04-22T03:53:05.738Z,86.80
2023-04-22T03:54:06.625Z,86.70
2023-04-22T03:55:07.547Z,86.91
2023-04-22T03:56:08.362Z,87.12
2023-04-22T03:57:09.271Z,87.32
2023-04-22T03:58:10.117Z,87.53
2023-04-22T03:59:10.962Z,87.22
2023-04-22T04:00:11.790Z,87.84
2023-04-22T04:01:12.708Z,87.88
2023-04-22T04:02:13.589Z,87.68
2023-04-22T04:03:14.534Z,87.78
2023-04-22T04:04:15.255Z,87.78
2023-04-22T04:05:15.993Z,87.47
2023-04-22T04:06:16.409Z,87.22
2023-04-22T04:07:17.231Z,87.12
2023-04-22T04:08:18.058Z,88.09
2023-04-22T04:09:18.937Z,88.51
2023-04-22T04:10:19.790Z,88.26
2023-04-22T04:11:20.683Z,87.99
2023-04-22T04:12:21.495Z,88.26
2023-04-22T04:13:22.372Z,87.84
2023-04-22T04:14:23.213Z,87.74
2023-04-22T04:15:24.049Z,87.74
2023-04-22T04:16:24.979Z,87.22
2023-04-22T04:17:26.004Z,87.01
2023-04-22T04:18:26.416Z,87.22
2023-04-22T04:19:27.270Z,87.22
2023-04-22T04:20:28.097Z,87.12
2023-04-22T04:21:28.924Z,87.12
2023-04-22T04:22:29.787Z,87.12
2023-04-22T04:23:30.649Z,87.68
2023-04-22T04:24:31.490Z,87.57
2023-04-22T04:25:32.337Z,87.47
2023-04-22T04:26:33.205Z,87.68
2023-04-22T04:27:34.034Z,87.68
2023-04-22T04:28:34.886Z,87.88
2023-04-22T04:29:35.722Z,87.99
2023-04-22T04:30:36.541Z,88.30
2023-04-22T04:31:37.427Z,88.20
2023-04-22T04:32:38.321Z,88.09
2023-04-22T04:33:39.126Z,88.09
2023-04-22T04:34:39.969Z,87.68
2023-04-22T04:35:40.794Z,87.68
2023-04-22T04:36:41.639Z,87.88
2023-04-22T04:37:42.450Z,87.78
2023-04-22T04:38:43.270Z,87.47
2023-04-22T04:39:44.098Z,87.26
2023-04-22T04:40:44.925Z,87.16
2023-04-22T04:41:45.756Z,87.16
2023-04-22T04:42:46.609Z,87.57
2023-04-22T04:43:47.433Z,87.57
2023-04-22T04:44:48.244Z,87.26
2023-04-22T04:45:49.168Z,87.16
2023-04-22T04:46:49.936Z,87.26
2023-04-22T04:47:50.857Z,87.47
2023-04-22T04:48:51.698Z,87.68
2023-04-22T04:49:52.517Z,87.47
2023-04-22T04:50:53.343Z,87.68
2023-04-22T04:51:54.169Z,87.68
2023-04-22T04:52:54.997Z,87.78
2023-04-22T04:53:55.813Z,87.78
2023-04-22T04:54:56.657Z,87.99
2023-04-22T04:55:57.496Z,88.09
2023-04-22T04:56:58.307Z,88.40
2023-04-22T04:57:59.135Z,87.99
2023-04-22T04:58:59.969Z,87.78
2023-04-22T05:00:00.779Z,87.88
2023-04-22T05:01:01.617Z,87.88
2023-04-22T05:02:02.742Z,87.78
2023-04-22T05:03:03.253Z,87.68
2023-04-22T05:04:03.774Z,87.68
2023-04-22T05:05:04.270Z,87.78
2023-04-22T05:06:05.097Z,87.43
2023-04-22T05:07:05.972Z,87.37
2023-04-22T05:08:06.753Z,87.26
2023-04-22T05:09:07.606Z,87.63
2023-04-22T05:10:08.425Z,87.43
2023-04-22T05:11:09.248Z,87.32
2023-04-22T05:12:10.083Z,87.53
2023-04-22T05:13:10.915Z,87.84
2023-04-22T05:14:11.758Z,87.74
2023-04-22T05:15:12.574Z,88.26
2023-04-22T05:16:13.435Z,88.15
2023-04-22T05:17:14.247Z,88.15
2023-04-22T05:18:15.076Z,87.74
2023-04-22T05:19:15.920Z,87.84
2023-04-22T05:20:16.743Z,88.36
2023-04-22T05:21:17.584Z,88.05
2023-04-22T05:22:18.384Z,88.05
2023-04-22T05:23:19.219Z,87.90
2023-04-22T05:24:20.037Z,87.90
2023-04-22T05:25:20.885Z,88.01
2023-04-22T05:26:21.705Z,88.01
2023-04-22T05:27:22.524Z,87.18
2023-04-22T05:28:23.343Z,87.35
2023-04-22T05:29:24.186Z,87.55
2023-04-22T05:30:24.994Z,86.41
2023-04-22T05:31:25.897Z,84.82
2023-04-22T05:32:26.792Z,84.37
2023-04-22T05:33:27.623Z,84.78
2023-04-22T05:34:28.451Z,85.09
2023-04-22T05:35:29.281Z,84.64
2023-04-22T05:36:31.617Z,83.91
2023-04-22T05:37:30.998Z,83.40
2023-04-22T05:38:31.824Z,82.43
2023-04-22T05:39:32.646Z,82.22
2023-04-22T05:40:33.468Z,83.53
2023-04-22T05:41:34.301Z,83.94
2023-04-22T05:42:35.123Z,82.80
2023-04-22T05:43:35.971Z,82.29
2023-04-22T05:44:36.819Z,82.60
2023-04-22T05:45:37.704Z,82.45
2023-04-22T05:46:38.562Z,84.31
2023-04-22T05:47:39.504Z,84.21
2023-04-22T05:48:40.293Z,84.52
2023-04-22T05:49:41.587Z,84.59
2023-04-22T05:50:42.126Z,84.79
2023-04-22T05:51:42.948Z,84.89
2023-04-22T05:52:43.775Z,83.86
2023-04-22T05:53:44.592Z,83.65
2023-04-22T05:54:45.415Z,83.76
2023-04-22T05:55:46.256Z,83.72
2023-04-22T05:56:47.074Z,83.72
2023-04-22T05:57:47.914Z,83.62
2023-04-22T05:58:48.764Z,82.96
2023-04-22T05:59:49.571Z,83.17
2023-04-22T06:00:50.373Z,83.27
2023-04-22T06:01:51.220Z,81.41
2023-04-22T06:02:52.200Z,78.90
2023-04-22T06:03:52.893Z,78.59
2023-04-22T06:04:53.644Z,79.17
2023-04-22T06:05:54.291Z,77.69
2023-04-22T06:06:54.677Z,76.46
2023-04-22T06:07:55.484Z,76.63
2023-04-22T06:08:56.306Z,77.45
2023-04-22T06:10:04.107Z,74.95
2023-04-22T06:10:58.856Z,74.53
2023-04-22T06:11:58.679Z,74.02
2023-04-22T06:12:59.521Z,74.50
2023-04-22T06:14:00.349Z,73.98
2023-04-22T06:15:01.182Z,73.88
2023-04-22T06:16:02.084Z,72.96
2023-04-22T06:17:02.900Z,72.30
2023-04-22T06:18:03.736Z,72.72
2023-04-22T06:19:04.532Z,72.41
2023-04-22T06:20:05.438Z,71.48
2023-04-22T06:21:06.265Z,71.24
2023-04-22T06:22:07.084Z,71.45
2023-04-22T06:23:07.899Z,71.66
2023-04-22T06:24:08.739Z,72.38
2023-04-22T06:25:09.550Z,72.24
2023-04-22T06:26:10.395Z,71.41
2023-04-22T06:27:11.212Z,71.41
2023-04-22T06:28:12.047Z,70.70
2023-04-22T06:29:12.868Z,71.00
2023-04-22T06:30:13.726Z,71.38
2023-04-22T06:31:14.558Z,70.46
2023-04-22T06:32:15.402Z,70.53
2023-04-22T06:33:16.263Z,69.81
2023-04-22T06:34:17.034Z,69.67
2023-04-22T06:35:17.862Z,69.33
2023-04-22T06:36:18.701Z,68.72
2023-04-22T06:37:19.516Z,67.86
2023-04-22T06:38:20.369Z,68.27
2023-04-22T06:39:21.172Z,68.14
2023-04-22T06:40:22.012Z,66.50
2023-04-22T06:41:22.839Z,66.37
2023-04-22T06:42:23.658Z,65.93
2023-04-22T06:43:24.470Z,65.93
2023-04-22T06:44:25.320Z,65.18
2023-04-22T06:45:26.149Z,65.77
2023-04-22T06:46:26.975Z,65.15
2023-04-22T06:47:27.794Z,63.66
2023-04-22T06:48:28.631Z,63.43
2023-04-22T06:49:29.429Z,63.40
2023-04-22T06:50:30.280Z,62.85
2023-04-22T06:51:31.145Z,61.40
2023-04-22T06:52:31.931Z,61.47
2023-04-22T06:53:32.756Z,60.22
2023-04-22T06:54:33.580Z,57.98
2023-04-22T06:55:34.397Z,58.87
2023-04-22T06:56:35.252Z,58.33
2023-04-22T06:57:36.084Z,58.51
2023-04-22T06:58:36.892Z,57.77
2023-04-22T06:59:37.971Z,56.95
2023-04-22T07:00:38.377Z,56.21
2023-04-22T07:01:39.214Z,55.27
2023-04-22T07:02:40.127Z,56.06
2023-04-22T07:03:41.210Z,54.31
2023-04-22T07:04:41.784Z,54.36
2023-04-22T07:05:42.129Z,54.51
2023-04-22T07:06:42.963Z,53.27
2023-04-22T07:07:43.776Z,51.60
2023-04-22T07:08:44.634Z,50.95
2023-04-22T07:09:45.445Z,50.34
2023-04-22T07:10:46.269Z,49.08
2023-04-22T07:11:47.093Z,48.53
2023-04-22T07:12:47.930Z,48.69
2023-04-22T07:13:48.764Z,47.83
2023-04-22T07:14:49.579Z,45.98
2023-04-22T07:15:50.463Z,44.32
2023-04-22T07:16:51.277Z,43.40
2023-04-22T07:17:52.159Z,42.88
2023-04-22T07:18:52.952Z,42.35
2023-04-22T07:19:53.777Z,40.73
2023-04-22T07:20:54.641Z,40.13
2023-04-22T07:21:55.482Z,40.03
2023-04-22T07:22:56.378Z,39.61
2023-04-22T07:23:57.191Z,39.91
2023-04-22T07:24:58.016Z,39.79
2023-04-22T07:25:58.848Z,40.17
2023-04-22T07:26:59.681Z,39.18
2023-04-22T07:28:00.508Z,39.97
2023-04-22T07:29:01.333Z,39.65
2023-04-22T07:30:02.159Z,38.81
2023-04-22T07:31:03.013Z,38.11
2023-04-22T07:32:03.844Z,37.70
2023-04-22T07:33:04.681Z,36.98
2023-04-22T07:34:05.464Z,37.79
2023-04-22T07:35:06.298Z,37.26
2023-04-22T07:36:07.144Z,36.74
2023-04-22T07:37:07.983Z,36.72
2023-04-22T07:38:09.853Z,36.09
2023-04-22T07:39:09.467Z,34.76
2023-04-22T07:40:10.251Z,33.67
2023-04-22T07:41:11.081Z,33.76
2023-04-22T07:42:11.914Z,34.38
2023-04-22T07:43:12.753Z,34.68
2023-04-22T07:44:13.569Z,33.78
2023-04-22T07:45:14.390Z,33.37
2023-04-22T07:46:15.267Z,34.06
2023-04-22T07:47:16.073Z,33.55
2023-04-22T07:48:16.892Z,33.05
2023-04-22T07:49:17.716Z,33.15
2023-04-22T07:50:18.591Z,32.48
2023-04-22T07:51:19.368Z,33.51
2023-04-22T07:52:20.205Z,33.15
2023-04-22T07:53:21.027Z,34.46
2023-04-22T07:54:21.867Z,35.46
2023-04-22T07:55:22.678Z,34.99
2023-04-22T07:56:23.556Z,35.33
2023-04-22T07:57:24.357Z,37.05
2023-04-22T07:58:25.175Z,36.78
2023-04-22T07:59:26.002Z,37.12
2023-04-22T08:00:26.828Z,37.13
2023-04-22T08:01:27.663Z,38.56
2023-04-22T08:02:28.599Z,38.86
2023-04-22T08:03:29.608Z,39.26
2023-04-22T08:04:30.276Z,38.94
2023-04-22T08:05:30.615Z,39.51
2023-04-22T08:06:31.437Z,38.57
2023-04-22T08:07:33.624Z,36.23
2023-04-22T08:08:33.116Z,35.58
2023-04-22T08:09:33.901Z,34.36
2023-04-22T08:10:34.722Z,35.42
2023-04-22T08:11:35.549Z,34.20
2023-04-22T08:12:36.388Z,33.56
2023-04-22T08:13:37.226Z,33.18
2023-04-22T08:14:38.086Z,33.56
2023-04-22T08:15:38.901Z,33.05
2023-04-22T08:16:39.729Z,32.18
2023-04-22T08:17:40.541Z,33.30
2023-04-22T08:18:41.364Z,33.63
2023-04-22T08:19:42.314Z,34.64
2023-04-22T08:20:43.134Z,34.38
2023-04-22T08:21:43.928Z,34.59
2023-04-22T08:22:44.769Z,36.23
2023-04-22T08:23:45.581Z,35.16
2023-04-22T08:24:46.407Z,36.60
2023-04-22T08:25:47.244Z,37.82
2023-04-22T08:26:48.113Z,38.64
2023-04-22T08:27:48.915Z,38.78
2023-04-22T08:28:49.744Z,38.98
2023-04-22T08:29:50.572Z,40.00
2023-04-22T08:30:51.398Z,40.33
2023-04-22T08:31:52.244Z,39.82
2023-04-22T08:32:53.139Z,39.76
2023-04-22T08:33:53.902Z,40.46
2023-04-22T08:35:03.590Z,40.18
2023-04-22T08:35:56.439Z,40.40
2023-04-22T08:36:56.270Z,41.51
2023-04-22T08:37:57.143Z,41.22
2023-04-22T08:38:57.956Z,41.63
2023-04-22T08:39:58.770Z,42.35
2023-04-22T08:40:59.578Z,42.05
2023-04-22T08:42:00.396Z,42.86
2023-04-22T08:43:01.252Z,42.66
2023-04-22T08:44:02.123Z,43.08
2023-04-22T08:45:02.922Z,42.47
2023-04-22T08:46:03.731Z,42.58
2023-04-22T08:47:04.671Z,42.98
2023-04-22T08:48:05.549Z,43.28
2023-04-22T08:49:06.403Z,42.47
2023-04-22T08:50:07.197Z,42.40
2023-04-22T08:51:08.027Z,42.19
2023-04-22T08:52:08.839Z,41.69
2023-04-22T08:53:09.679Z,41.69
2023-04-22T08:54:10.503Z,41.69
2023-04-22T08:55:11.361Z,42.01
2023-04-22T08:56:12.161Z,41.81
2023-04-22T08:57:12.991Z,42.01
2023-04-22T08:58:13.826Z,41.81
2023-04-22T08:59:14.685Z,41.81
2023-04-22T09:00:15.484Z,41.50
2023-04-22T09:01:16.388Z,41.41
2023-04-22T09:02:17.231Z,41.20
2023-04-22T09:03:18.119Z,41.10
2023-04-22T09:04:19.075Z,41.71
2023-04-22T09:05:19.412Z,42.21
2023-04-22T09:06:20.309Z,40.30
2023-04-22T09:07:21.089Z,41.20
2023-04-22T09:08:21.920Z,41.71
2023-04-22T09:09:22.747Z,41.71
2023-04-22T09:10:23.565Z,41.50
2023-04-22T09:11:24.390Z,40.59
2023-04-22T09:12:25.281Z,41.20
2023-04-22T09:13:26.076Z,40.50
2023-04-22T09:14:26.919Z,41.00
2023-04-22T09:15:27.745Z,41.10
2023-04-22T09:16:28.640Z,40.78
2023-04-22T09:17:29.452Z,40.68
2023-04-22T09:18:30.286Z,40.48
2023-04-22T09:19:31.082Z,40.48
2023-04-22T09:20:31.908Z,39.17
2023-04-22T09:21:32.735Z,40.28
2023-04-22T09:22:33.556Z,39.65
2023-04-22T09:23:34.391Z,39.75
2023-04-22T09:24:35.247Z,40.25
2023-04-22T09:25:36.046Z,39.75
2023-04-22T09:26:36.864Z,39.43
2023-04-22T09:27:37.690Z,40.23
2023-04-22T09:28:38.519Z,40.94
2023-04-22T09:29:39.768Z,39.53
2023-04-22T09:30:40.342Z,40.74
2023-04-22T09:31:41.178Z,40.01
2023-04-22T09:32:42.109Z,40.22
2023-04-22T09:33:42.917Z,39.11
2023-04-22T09:34:43.734Z,38.81
2023-04-22T09:35:44.560Z,39.11
2023-04-22T09:36:45.430Z,39.51
2023-04-22T09:37:49.607Z,39.92
2023-04-22T09:38:47.063Z,40.50
2023-04-22T09:39:49.593Z,39.19
2023-04-22T09:40:48.527Z,38.79
2023-04-22T09:41:49.353Z,38.89
2023-04-22T09:42:50.233Z,38.79
2023-04-22T09:43:51.028Z,38.99
2023-04-22T09:44:51.841Z,40.20
2023-04-22T09:45:52.706Z,38.59
2023-04-22T09:46:53.490Z,38.99
2023-04-22T09:47:54.394Z,38.08
2023-04-22T09:48:55.280Z,38.89
2023-04-22T09:49:56.087Z,39.50
2023-04-22T09:50:56.890Z,38.79
2023-04-22T09:51:57.722Z,38.59
2023-04-22T09:52:58.536Z,37.07
2023-04-22T09:53:59.407Z,35.77
2023-04-22T09:55:00.249Z,38.08
2023-04-22T09:56:01.042Z,37.88
2023-04-22T09:57:01.851Z,37.48
2023-04-22T09:58:02.682Z,37.78
2023-04-22T09:59:03.521Z,38.08
2023-04-22T10:00:04.357Z,37.68
2023-04-22T10:01:05.245Z,36.57
2023-04-22T10:02:06.039Z,36.57
2023-04-22T10:03:08.252Z,35.46
2023-04-22T10:04:07.864Z,35.77
2023-04-22T10:05:08.644Z,38.08
2023-04-22T10:06:09.488Z,39.07
2023-04-22T10:07:10.348Z,38.47
2023-04-22T10:08:11.245Z,37.46
2023-04-22T10:09:12.064Z,37.26
2023-04-22T10:10:12.900Z,37.46
2023-04-22T10:11:13.721Z,36.96
2023-04-22T10:12:16.560Z,37.26
2023-04-22T10:13:15.525Z,36.96
2023-04-22T10:14:16.313Z,37.06
2023-04-22T10:15:17.132Z,37.45
2023-04-22T10:16:17.987Z,37.65
2023-04-22T10:17:18.769Z,36.94
2023-04-22T10:18:19.614Z,37.04
2023-04-22T10:19:20.485Z,36.64
2023-04-22T10:20:21.270Z,36.94
2023-04-22T10:21:22.075Z,37.24
2023-04-22T10:22:22.906Z,37.23
2023-04-22T10:23:23.743Z,36.32
2023-04-22T10:24:24.568Z,35.71
2023-04-22T10:25:25.430Z,36.02
2023-04-22T10:26:26.224Z,36.02
2023-04-22T10:27:27.054Z,36.32
2023-04-22T10:28:27.870Z,35.82
2023-04-22T10:29:28.696Z,36.22
2023-04-22T10:30:29.525Z,35.31
2023-04-22T10:31:30.505Z,34.71
2023-04-22T10:32:31.348Z,33.18
2023-04-22T10:33:32.165Z,34.39
2023-04-22T10:34:32.998Z,32.38
2023-04-22T10:35:33.797Z,32.28
2023-04-22T10:36:34.625Z,32.18
2023-04-22T10:37:35.525Z,32.59
2023-04-22T10:38:36.311Z,32.90
2023-04-22T10:39:37.148Z,32.59
2023-04-22T10:40:37.969Z,33.70
2023-04-22T10:41:38.789Z,32.50
2023-04-22T10:42:39.626Z,34.81
2023-04-22T10:43:40.485Z,33.60
2023-04-22T10:44:41.286Z,33.20
2023-04-22T10:45:42.104Z,31.29
2023-04-22T10:46:43.044Z,33.10
2023-04-22T10:47:43.830Z,33.60
2023-04-22T10:48:44.656Z,33.20
2023-04-22T10:49:45.524Z,32.70
2023-04-22T10:50:46.309Z,33.91
2023-04-22T10:51:47.144Z,35.41
2023-04-22T10:52:47.966Z,35.19
2023-04-22T10:53:48.773Z,34.29
2023-04-22T10:54:49.666Z,34.39
2023-04-22T10:55:50.462Z,33.59
2023-04-22T10:56:57.542Z,34.79
2023-04-22T10:57:53.002Z,34.69
2023-04-22T10:58:52.828Z,33.28
2023-04-22T10:59:53.662Z,33.28
2023-04-22T11:00:54.659Z,33.28
2023-04-22T11:01:55.480Z,33.08
2023-04-22T11:02:56.435Z,33.99
2023-04-22T11:03:56.893Z,34.27
2023-04-22T11:04:57.732Z,32.67
2023-04-22T11:05:58.556Z,33.77
2023-04-22T11:06:59.432Z,35.38
2023-04-22T11:08:00.227Z,35.38
2023-04-22T11:09:01.057Z,34.47
2023-04-22T11:10:01.885Z,35.57
2023-04-22T11:11:02.708Z,34.46
2023-04-22T11:12:03.543Z,34.46
2023-04-22T11:13:04.407Z,33.86
2023-04-22T11:14:05.194Z,33.75
2023-04-22T11:15:06.046Z,33.15
2023-04-22T11:16:06.874Z,33.05
2023-04-22T11:17:07.694Z,31.74
2023-04-22T11:18:08.519Z,32.85
2023-04-22T11:19:09.396Z,32.65
2023-04-22T11:20:10.200Z,34.36
2023-04-22T11:21:11.021Z,35.86
2023-04-22T11:22:11.849Z,34.06
2023-04-22T11:23:12.675Z,33.55
2023-04-22T11:24:13.494Z,34.76
2023-04-22T11:25:14.392Z,34.44
2023-04-22T11:26:15.174Z,31.83
2023-04-22T11:27:16.006Z,32.05
2023-04-22T11:28:16.830Z,34.66
2023-04-22T11:29:17.656Z,33.75
2023-04-22T11:30:18.494Z,31.85
2023-04-22T11:31:19.384Z,32.35
2023-04-22T11:32:20.174Z,31.83
2023-04-22T11:33:20.998Z,32.55
2023-04-22T11:34:21.842Z,31.93
2023-04-22T11:35:22.658Z,32.45
2023-04-22T11:36:23.482Z,32.84
2023-04-22T11:37:24.349Z,32.65
2023-04-22T11:38:25.145Z,32.43
2023-04-22T11:39:25.967Z,33.64
2023-04-22T11:40:30.214Z,32.33
2023-04-22T11:41:27.364Z,32.14
2023-04-22T11:42:28.194Z,33.64
2023-04-22T11:43:29.087Z,34.14
2023-04-22T11:44:29.862Z,34.14
2023-04-22T11:45:30.758Z,33.92
2023-04-22T11:46:31.687Z,32.92
2023-04-22T11:47:32.517Z,33.12
2023-04-22T11:48:33.337Z,32.12
2023-04-22T11:49:34.199Z,31.82
2023-04-22T11:50:35.005Z,30.31
2023-04-22T11:51:35.828Z,31.82
2023-04-22T11:52:36.652Z,30.81
2023-04-22T11:53:37.489Z,31.92
2023-04-22T11:54:38.311Z,32.82
2023-04-22T11:55:39.154Z,31.01
2023-04-22T11:56:40.034Z,31.71
2023-04-22T11:57:40.812Z,33.42
2023-04-22T11:58:41.630Z,33.22
2023-04-22T11:59:42.604Z,33.12
2023-04-22T12:00:43.413Z,33.22
2023-04-22T12:01:44.215Z,33.72
2023-04-22T12:02:45.167Z,33.91
2023-04-22T12:03:46.214Z,32.81
2023-04-22T12:04:46.584Z,32.90
2023-04-22T12:05:47.455Z,30.80
2023-04-22T12:06:48.300Z,30.30
2023-04-22T12:07:49.124Z,31.70
2023-04-22T12:08:49.993Z,31.50
2023-04-22T12:09:50.780Z,32.40
2023-04-22T12:10:51.614Z,32.60
2023-04-22T12:11:52.496Z,32.20
2023-04-22T12:12:53.269Z,32.81
2023-04-22T12:13:54.089Z,33.00
2023-04-22T12:14:54.925Z,33.81
2023-04-22T12:15:55.761Z,34.29
2023-04-22T12:16:56.613Z,33.59
2023-04-22T12:17:57.472Z,32.79
2023-04-22T12:18:58.249Z,33.29
2023-04-22T12:19:59.082Z,31.57
2023-04-22T12:20:59.903Z,29.58
2023-04-22T12:22:00.722Z,30.18
2023-04-22T12:23:01.549Z,29.48
2023-04-22T12:24:02.364Z,30.18
2023-04-22T12:25:03.197Z,30.68
2023-04-22T12:26:04.042Z,31.29
2023-04-22T12:27:04.880Z,32.29
2023-04-22T12:28:05.687Z,32.39
2023-04-22T12:29:06.553Z,32.47
2023-04-22T12:30:07.349Z,31.97
2023-04-22T12:31:08.224Z,30.57
2023-04-22T12:32:09.009Z,31.47
2023-04-22T12:33:09.835Z,31.57
2023-04-22T12:34:10.790Z,32.37
2023-04-22T12:35:11.633Z,32.67
2023-04-22T12:36:12.435Z,32.86
2023-04-22T12:37:13.261Z,32.96
2023-04-22T12:38:14.081Z,31.85
2023-04-22T12:39:14.941Z,32.35
2023-04-22T12:40:15.728Z,31.46
2023-04-22T12:41:16.582Z,31.96
2023-04-22T12:42:17.402Z,32.47
2023-04-22T12:43:18.224Z,32.47
2023-04-22T12:44:19.043Z,32.37
2023-04-22T12:45:19.867Z,32.47
2023-04-22T12:46:20.727Z,32.67
2023-04-22T12:47:21.591Z,33.58
2023-04-22T12:48:22.362Z,31.87
2023-04-22T12:49:23.198Z,32.97
2023-04-22T12:50:24.027Z,32.27
2023-04-22T12:51:24.854Z,32.87
2023-04-22T12:52:25.682Z,33.67
2023-04-22T12:53:26.524Z,33.07
2023-04-22T12:54:27.349Z,32.67
2023-04-22T12:55:28.175Z,31.77
2023-04-22T12:56:29.021Z,31.67
2023-04-22T12:57:29.845Z,32.57
2023-04-22T12:58:30.683Z,32.99
2023-04-22T12:59:31.492Z,33.39
2023-04-22T13:00:32.331Z,32.49
2023-04-22T13:01:34.563Z,32.59
2023-04-22T13:02:34.243Z,32.59
2023-04-22T13:03:35.197Z,32.69